sensor_id;sensor_type;location;lat;lon;timestamp;P1;durP1;ratioP1;P2;durP2;ratioP2
69799;SDS011;67217;51.008;4.644;2023-02-15T00:02:04;76.82;;;45.43;;
69799;SDS011;67217;51.008;4.644;2023-02-15T00:04:32;74.07;;;44.77;;
69799;SDS011;67217;51.008;4.644;2023-02-15T00:07:16;83.52;;;46.45;;
69799;SDS011;67217;51.008;4.644;2023-02-15T00:09:46;73.62;;;44.40;;
69799;SDS011;67217;51.008;4.644;2023-02-15T00:12:14;75.65;;;45.67;;
69799;SDS011;67217;51.008;4.644;2023-02-15T00:14:43;72.95;;;43.55;;
69799;SDS011;67217;51.008;4.644;2023-02-15T00:17:11;84.97;;;46.05;;
69799;SDS011;67217;51.008;4.644;2023-02-15T00:19:39;84.42;;;50.78;;
69799;SDS011;67217;51.008;4.644;2023-02-15T00:22:06;85.55;;;51.83;;
69799;SDS011;67217;51.008;4.644;2023-02-15T00:24:34;80.35;;;49.50;;
69799;SDS011;67217;51.008;4.644;2023-02-15T00:27:02;77.45;;;48.78;;
69799;SDS011;67217;51.008;4.644;2023-02-15T00:29:30;78.72;;;48.00;;
69799;SDS011;67217;51.008;4.644;2023-02-15T00:31:57;75.08;;;45.70;;
69799;SDS011;67217;51.008;4.644;2023-02-15T00:34:26;77.87;;;47.48;;
69799;SDS011;67217;51.008;4.644;2023-02-15T00:36:54;80.45;;;47.40;;
69799;SDS011;67217;51.008;4.644;2023-02-15T00:39:22;77.20;;;47.88;;
69799;SDS011;67217;51.008;4.644;2023-02-15T00:41:51;80.67;;;50.00;;
69799;SDS011;67217;51.008;4.644;2023-02-15T00:44:19;87.65;;;51.95;;
69799;SDS011;67217;51.008;4.644;2023-02-15T00:46:46;88.37;;;52.00;;
69799;SDS011;67217;51.008;4.644;2023-02-15T00:49:15;84.30;;;52.75;;
69799;SDS011;67217;51.008;4.644;2023-02-15T00:51:43;84.83;;;50.60;;
69799;SDS011;67217;51.008;4.644;2023-02-15T00:54:11;87.72;;;50.83;;
69799;SDS011;67217;51.008;4.644;2023-02-15T00:56:39;88.55;;;50.92;;
69799;SDS011;67217;51.008;4.644;2023-02-15T00:59:08;95.12;;;55.73;;
69799;SDS011;67217;51.008;4.644;2023-02-15T01:01:36;91.20;;;51.30;;
69799;SDS011;67217;51.008;4.644;2023-02-15T01:04:04;81.75;;;49.00;;
69799;SDS011;67217;51.008;4.644;2023-02-15T01:06:32;88.52;;;52.50;;
69799;SDS011;67217;51.008;4.644;2023-02-15T01:09:00;85.97;;;50.90;;
69799;SDS011;67217;51.008;4.644;2023-02-15T01:11:27;86.67;;;51.40;;
69799;SDS011;67217;51.008;4.644;2023-02-15T01:13:56;84.13;;;50.65;;
69799;SDS011;67217;51.008;4.644;2023-02-15T01:16:25;85.80;;;51.60;;
69799;SDS011;67217;51.008;4.644;2023-02-15T01:21:23;83.25;;;48.02;;
69799;SDS011;67217;51.008;4.644;2023-02-15T01:23:52;83.37;;;49.48;;
69799;SDS011;67217;51.008;4.644;2023-02-15T01:26:20;81.82;;;47.48;;
69799;SDS011;67217;51.008;4.644;2023-02-15T01:28:48;87.72;;;50.73;;
69799;SDS011;67217;51.008;4.644;2023-02-15T01:31:17;96.05;;;52.60;;
69799;SDS011;67217;51.008;4.644;2023-02-15T01:33:47;95.97;;;54.42;;
69799;SDS011;67217;51.008;4.644;2023-02-15T01:36:15;92.62;;;52.25;;
69799;SDS011;67217;51.008;4.644;2023-02-15T01:38:43;89.92;;;52.60;;
69799;SDS011;67217;51.008;4.644;2023-02-15T01:41:11;89.22;;;52.17;;
69799;SDS011;67217;51.008;4.644;2023-02-15T01:43:56;89.00;;;51.40;;
69799;SDS011;67217;51.008;4.644;2023-02-15T01:46:35;91.63;;;52.00;;
69799;SDS011;67217;51.008;4.644;2023-02-15T01:49:14;91.90;;;53.60;;
69799;SDS011;67217;51.008;4.644;2023-02-15T01:51:42;97.65;;;54.03;;
69799;SDS011;67217;51.008;4.644;2023-02-15T01:54:21;97.65;;;53.05;;
69799;SDS011;67217;51.008;4.644;2023-02-15T01:56:54;87.02;;;52.38;;
69799;SDS011;67217;51.008;4.644;2023-02-15T01:59:24;100.30;;;53.38;;
69799;SDS011;67217;51.008;4.644;2023-02-15T02:01:53;98.12;;;55.55;;
69799;SDS011;67217;51.008;4.644;2023-02-15T02:04:31;97.65;;;54.48;;
69799;SDS011;67217;51.008;4.644;2023-02-15T02:07:00;94.60;;;53.85;;
69799;SDS011;67217;51.008;4.644;2023-02-15T02:09:29;89.20;;;51.90;;
69799;SDS011;67217;51.008;4.644;2023-02-15T02:11:57;86.37;;;50.75;;
69799;SDS011;67217;51.008;4.644;2023-02-15T02:14:26;98.17;;;52.75;;
69799;SDS011;67217;51.008;4.644;2023-02-15T02:19:59;90.53;;;51.48;;
69799;SDS011;67217;51.008;4.644;2023-02-15T02:25:51;91.45;;;51.68;;
69799;SDS011;67217;51.008;4.644;2023-02-15T02:34:07;85.83;;;49.70;;
69799;SDS011;67217;51.008;4.644;2023-02-15T02:36:45;98.75;;;55.00;;
69799;SDS011;67217;51.008;4.644;2023-02-15T02:39:14;99.10;;;53.90;;
69799;SDS011;67217;51.008;4.644;2023-02-15T02:44:36;92.97;;;52.60;;
69799;SDS011;67217;51.008;4.644;2023-02-15T02:49:47;89.90;;;54.88;;
69799;SDS011;67217;51.008;4.644;2023-02-15T02:52:35;74.58;;;40.55;;
69799;SDS011;67217;51.008;4.644;2023-02-15T02:55:10;89.17;;;50.08;;
69799;SDS011;67217;51.008;4.644;2023-02-15T02:57:40;91.90;;;52.00;;
69799;SDS011;67217;51.008;4.644;2023-02-15T03:00:09;90.87;;;52.50;;
69799;SDS011;67217;51.008;4.644;2023-02-15T03:02:39;86.97;;;50.98;;
69799;SDS011;67217;51.008;4.644;2023-02-15T03:05:11;89.15;;;51.50;;
69799;SDS011;67217;51.008;4.644;2023-02-15T03:07:39;85.92;;;48.38;;
69799;SDS011;67217;51.008;4.644;2023-02-15T03:10:10;83.60;;;49.75;;
69799;SDS011;67217;51.008;4.644;2023-02-15T03:12:38;86.70;;;51.53;;
69799;SDS011;67217;51.008;4.644;2023-02-15T03:15:13;90.45;;;51.25;;
69799;SDS011;67217;51.008;4.644;2023-02-15T03:17:42;82.35;;;48.52;;
69799;SDS011;67217;51.008;4.644;2023-02-15T03:20:17;84.32;;;51.48;;
69799;SDS011;67217;51.008;4.644;2023-02-15T03:22:49;89.58;;;51.08;;
69799;SDS011;67217;51.008;4.644;2023-02-15T03:25:20;85.28;;;49.23;;
69799;SDS011;67217;51.008;4.644;2023-02-15T03:27:51;85.05;;;49.65;;
69799;SDS011;67217;51.008;4.644;2023-02-15T03:30:20;88.00;;;50.60;;
69799;SDS011;67217;51.008;4.644;2023-02-15T03:32:50;90.50;;;50.67;;
69799;SDS011;67217;51.008;4.644;2023-02-15T03:35:22;90.22;;;51.00;;
69799;SDS011;67217;51.008;4.644;2023-02-15T03:37:54;93.03;;;51.65;;
69799;SDS011;67217;51.008;4.644;2023-02-15T03:40:29;92.30;;;53.10;;
69799;SDS011;67217;51.008;4.644;2023-02-15T03:45:48;95.92;;;54.33;;
69799;SDS011;67217;51.008;4.644;2023-02-15T03:48:31;98.45;;;53.63;;
69799;SDS011;67217;51.008;4.644;2023-02-15T03:51:05;93.55;;;52.30;;
69799;SDS011;67217;51.008;4.644;2023-02-15T03:53:51;90.85;;;50.43;;
69799;SDS011;67217;51.008;4.644;2023-02-15T03:56:21;87.90;;;50.95;;
69799;SDS011;67217;51.008;4.644;2023-02-15T03:58:49;84.60;;;48.35;;
69799;SDS011;67217;51.008;4.644;2023-02-15T04:01:37;85.85;;;48.85;;
69799;SDS011;67217;51.008;4.644;2023-02-15T04:04:34;66.12;;;37.05;;
69799;SDS011;67217;51.008;4.644;2023-02-15T04:07:07;86.55;;;49.38;;
69799;SDS011;67217;51.008;4.644;2023-02-15T04:09:36;95.12;;;51.68;;
69799;SDS011;67217;51.008;4.644;2023-02-15T04:12:22;92.97;;;51.58;;
69799;SDS011;67217;51.008;4.644;2023-02-15T04:14:49;90.97;;;50.17;;
69799;SDS011;67217;51.008;4.644;2023-02-15T04:17:36;90.60;;;50.70;;
69799;SDS011;67217;51.008;4.644;2023-02-15T04:20:04;87.05;;;52.05;;
69799;SDS011;67217;51.008;4.644;2023-02-15T04:22:50;88.35;;;49.83;;
69799;SDS011;67217;51.008;4.644;2023-02-15T04:25:35;91.20;;;52.13;;
69799;SDS011;67217;51.008;4.644;2023-02-15T04:28:03;91.22;;;52.40;;
69799;SDS011;67217;51.008;4.644;2023-02-15T04:30:33;99.25;;;53.75;;
69799;SDS011;67217;51.008;4.644;2023-02-15T04:33:01;93.42;;;50.78;;
69799;SDS011;67217;51.008;4.644;2023-02-15T04:35:29;97.27;;;52.58;;
69799;SDS011;67217;51.008;4.644;2023-02-15T04:40:27;89.20;;;50.55;;
69799;SDS011;67217;51.008;4.644;2023-02-15T04:42:55;93.78;;;50.73;;
69799;SDS011;67217;51.008;4.644;2023-02-15T04:45:23;92.00;;;50.15;;
69799;SDS011;67217;51.008;4.644;2023-02-15T04:47:50;89.32;;;50.98;;
69799;SDS011;67217;51.008;4.644;2023-02-15T04:50:18;93.75;;;50.08;;
69799;SDS011;67217;51.008;4.644;2023-02-15T04:52:47;85.62;;;49.50;;
69799;SDS011;67217;51.008;4.644;2023-02-15T04:55:14;90.38;;;50.30;;
69799;SDS011;67217;51.008;4.644;2023-02-15T04:57:42;86.22;;;48.40;;
69799;SDS011;67217;51.008;4.644;2023-02-15T05:00:10;89.22;;;50.33;;
69799;SDS011;67217;51.008;4.644;2023-02-15T05:02:39;95.22;;;52.08;;
69799;SDS011;67217;51.008;4.644;2023-02-15T05:05:06;91.90;;;50.03;;
69799;SDS011;67217;51.008;4.644;2023-02-15T05:07:35;93.60;;;51.23;;
69799;SDS011;67217;51.008;4.644;2023-02-15T05:10:03;98.35;;;51.33;;
69799;SDS011;67217;51.008;4.644;2023-02-15T05:12:31;99.00;;;52.38;;
69799;SDS011;67217;51.008;4.644;2023-02-15T05:14:58;103.38;;;53.28;;
69799;SDS011;67217;51.008;4.644;2023-02-15T05:17:26;103.22;;;52.43;;
69799;SDS011;67217;51.008;4.644;2023-02-15T05:19:55;96.05;;;52.23;;
69799;SDS011;67217;51.008;4.644;2023-02-15T05:22:23;95.15;;;51.77;;
69799;SDS011;67217;51.008;4.644;2023-02-15T05:24:51;101.15;;;53.75;;
69799;SDS011;67217;51.008;4.644;2023-02-15T05:27:36;95.07;;;51.98;;
69799;SDS011;67217;51.008;4.644;2023-02-15T05:30:22;95.32;;;51.83;;
69799;SDS011;67217;51.008;4.644;2023-02-15T05:32:51;94.62;;;51.40;;
69799;SDS011;67217;51.008;4.644;2023-02-15T05:35:18;94.30;;;52.90;;
69799;SDS011;67217;51.008;4.644;2023-02-15T05:37:46;97.08;;;53.28;;
69799;SDS011;67217;51.008;4.644;2023-02-15T05:40:14;102.50;;;52.60;;
69799;SDS011;67217;51.008;4.644;2023-02-15T05:42:42;99.67;;;52.65;;
69799;SDS011;67217;51.008;4.644;2023-02-15T05:45:10;107.43;;;55.17;;
69799;SDS011;67217;51.008;4.644;2023-02-15T05:47:38;97.00;;;53.00;;
69799;SDS011;67217;51.008;4.644;2023-02-15T05:50:06;101.92;;;53.95;;
69799;SDS011;67217;51.008;4.644;2023-02-15T05:52:35;102.20;;;53.00;;
69799;SDS011;67217;51.008;4.644;2023-02-15T05:55:03;105.67;;;54.90;;
69799;SDS011;67217;51.008;4.644;2023-02-15T05:57:32;101.70;;;54.23;;
69799;SDS011;67217;51.008;4.644;2023-02-15T06:00:01;107.22;;;55.23;;
69799;SDS011;67217;51.008;4.644;2023-02-15T06:02:34;97.95;;;53.78;;
69799;SDS011;67217;51.008;4.644;2023-02-15T06:05:03;103.87;;;54.30;;
69799;SDS011;67217;51.008;4.644;2023-02-15T06:07:31;94.92;;;53.35;;
69799;SDS011;67217;51.008;4.644;2023-02-15T06:09:59;103.35;;;53.68;;
69799;SDS011;67217;51.008;4.644;2023-02-15T06:12:27;100.33;;;54.70;;
69799;SDS011;67217;51.008;4.644;2023-02-15T06:14:55;102.75;;;53.78;;
69799;SDS011;67217;51.008;4.644;2023-02-15T06:17:22;96.05;;;50.00;;
69799;SDS011;67217;51.008;4.644;2023-02-15T06:19:50;104.65;;;55.48;;
69799;SDS011;67217;51.008;4.644;2023-02-15T06:22:18;101.58;;;53.87;;
69799;SDS011;67217;51.008;4.644;2023-02-15T06:24:46;104.30;;;56.13;;
69799;SDS011;67217;51.008;4.644;2023-02-15T06:27:14;97.95;;;54.00;;
69799;SDS011;67217;51.008;4.644;2023-02-15T06:29:42;96.37;;;54.60;;
69799;SDS011;67217;51.008;4.644;2023-02-15T06:32:09;99.17;;;53.38;;
69799;SDS011;67217;51.008;4.644;2023-02-15T06:34:37;95.87;;;52.98;;
69799;SDS011;67217;51.008;4.644;2023-02-15T06:37:08;100.70;;;51.70;;
69799;SDS011;67217;51.008;4.644;2023-02-15T06:39:36;99.17;;;53.35;;
69799;SDS011;67217;51.008;4.644;2023-02-15T06:42:03;107.87;;;59.08;;
69799;SDS011;67217;51.008;4.644;2023-02-15T06:44:31;102.30;;;55.38;;
69799;SDS011;67217;51.008;4.644;2023-02-15T06:46:59;95.47;;;52.93;;
69799;SDS011;67217;51.008;4.644;2023-02-15T06:49:27;95.45;;;52.53;;
69799;SDS011;67217;51.008;4.644;2023-02-15T06:51:55;100.75;;;52.95;;
69799;SDS011;67217;51.008;4.644;2023-02-15T06:54:23;94.42;;;51.42;;
69799;SDS011;67217;51.008;4.644;2023-02-15T06:56:51;102.35;;;52.70;;
69799;SDS011;67217;51.008;4.644;2023-02-15T06:59:19;106.12;;;55.48;;
69799;SDS011;67217;51.008;4.644;2023-02-15T07:01:47;99.95;;;54.27;;
69799;SDS011;67217;51.008;4.644;2023-02-15T07:04:18;100.80;;;52.85;;
69799;SDS011;67217;51.008;4.644;2023-02-15T07:06:46;98.78;;;53.30;;
69799;SDS011;67217;51.008;4.644;2023-02-15T07:09:13;99.62;;;52.53;;
69799;SDS011;67217;51.008;4.644;2023-02-15T07:11:42;99.65;;;54.05;;
69799;SDS011;67217;51.008;4.644;2023-02-15T07:14:27;100.27;;;51.75;;
69799;SDS011;67217;51.008;4.644;2023-02-15T07:16:55;111.15;;;55.98;;
69799;SDS011;67217;51.008;4.644;2023-02-15T07:19:24;107.47;;;54.67;;
69799;SDS011;67217;51.008;4.644;2023-02-15T07:21:51;107.27;;;55.80;;
69799;SDS011;67217;51.008;4.644;2023-02-15T07:24:19;101.53;;;53.50;;
69799;SDS011;67217;51.008;4.644;2023-02-15T07:26:47;104.05;;;51.65;;
69799;SDS011;67217;51.008;4.644;2023-02-15T07:29:15;94.55;;;49.08;;
69799;SDS011;67217;51.008;4.644;2023-02-15T07:31:43;93.70;;;49.18;;
69799;SDS011;67217;51.008;4.644;2023-02-15T07:34:11;88.72;;;48.30;;
69799;SDS011;67217;51.008;4.644;2023-02-15T07:36:39;97.25;;;51.68;;
69799;SDS011;67217;51.008;4.644;2023-02-15T07:39:07;89.65;;;48.40;;
69799;SDS011;67217;51.008;4.644;2023-02-15T07:41:35;100.45;;;51.13;;
69799;SDS011;67217;51.008;4.644;2023-02-15T07:44:03;95.72;;;50.30;;
69799;SDS011;67217;51.008;4.644;2023-02-15T07:46:30;90.12;;;50.05;;
69799;SDS011;67217;51.008;4.644;2023-02-15T07:48:58;89.20;;;49.25;;
69799;SDS011;67217;51.008;4.644;2023-02-15T07:51:26;87.27;;;47.78;;
69799;SDS011;67217;51.008;4.644;2023-02-15T07:53:54;90.60;;;46.30;;
69799;SDS011;67217;51.008;4.644;2023-02-15T07:56:22;88.25;;;46.23;;
69799;SDS011;67217;51.008;4.644;2023-02-15T07:58:50;86.85;;;45.48;;
69799;SDS011;67217;51.008;4.644;2023-02-15T08:01:20;82.42;;;46.98;;
69799;SDS011;67217;51.008;4.644;2023-02-15T08:03:48;92.50;;;47.17;;
69799;SDS011;67217;51.008;4.644;2023-02-15T08:06:16;94.13;;;48.78;;
69799;SDS011;67217;51.008;4.644;2023-02-15T08:08:44;95.03;;;50.92;;
69799;SDS011;67217;51.008;4.644;2023-02-15T08:13:55;93.60;;;47.95;;
69799;SDS011;67217;51.008;4.644;2023-02-15T08:16:48;88.17;;;49.13;;
69799;SDS011;67217;51.008;4.644;2023-02-15T08:19:03;92.75;;;50.00;;
69799;SDS011;67217;51.008;4.644;2023-02-15T08:21:33;92.50;;;49.42;;
69799;SDS011;67217;51.008;4.644;2023-02-15T08:24:02;94.28;;;50.88;;
69799;SDS011;67217;51.008;4.644;2023-02-15T08:26:31;97.53;;;49.42;;
69799;SDS011;67217;51.008;4.644;2023-02-15T08:28:59;89.03;;;49.38;;
69799;SDS011;67217;51.008;4.644;2023-02-15T08:31:28;97.90;;;50.40;;
69799;SDS011;67217;51.008;4.644;2023-02-15T08:33:56;95.05;;;50.45;;
69799;SDS011;67217;51.008;4.644;2023-02-15T08:36:25;82.62;;;47.43;;
69799;SDS011;67217;51.008;4.644;2023-02-15T08:38:57;89.22;;;48.73;;
69799;SDS011;67217;51.008;4.644;2023-02-15T08:41:26;87.33;;;50.08;;
69799;SDS011;67217;51.008;4.644;2023-02-15T08:43:58;82.12;;;47.58;;
69799;SDS011;67217;51.008;4.644;2023-02-15T08:46:28;95.92;;;50.55;;
69799;SDS011;67217;51.008;4.644;2023-02-15T08:48:57;95.80;;;50.80;;
69799;SDS011;67217;51.008;4.644;2023-02-15T08:51:34;104.90;;;53.63;;
69799;SDS011;67217;51.008;4.644;2023-02-15T08:54:03;100.35;;;50.95;;
69799;SDS011;67217;51.008;4.644;2023-02-15T08:56:37;112.05;;;56.15;;
69799;SDS011;67217;51.008;4.644;2023-02-15T08:59:03;97.95;;;53.83;;
69799;SDS011;67217;51.008;4.644;2023-02-15T09:01:32;94.93;;;50.67;;
69799;SDS011;67217;51.008;4.644;2023-02-15T09:04:02;97.75;;;51.28;;
69799;SDS011;67217;51.008;4.644;2023-02-15T09:06:31;85.45;;;46.75;;
69799;SDS011;67217;51.008;4.644;2023-02-15T09:08:59;79.77;;;43.78;;
69799;SDS011;67217;51.008;4.644;2023-02-15T09:11:28;80.05;;;44.53;;
69799;SDS011;67217;51.008;4.644;2023-02-15T09:13:58;81.32;;;42.43;;
69799;SDS011;67217;51.008;4.644;2023-02-15T09:16:28;80.97;;;43.02;;
69799;SDS011;67217;51.008;4.644;2023-02-15T09:18:57;78.95;;;42.95;;
69799;SDS011;67217;51.008;4.644;2023-02-15T09:21:28;78.92;;;41.42;;
69799;SDS011;67217;51.008;4.644;2023-02-15T09:23:57;72.53;;;40.40;;
69799;SDS011;67217;51.008;4.644;2023-02-15T09:26:27;68.72;;;39.30;;
69799;SDS011;67217;51.008;4.644;2023-02-15T09:28:58;76.00;;;40.25;;
69799;SDS011;67217;51.008;4.644;2023-02-15T09:31:31;67.97;;;39.03;;
69799;SDS011;67217;51.008;4.644;2023-02-15T09:34:07;65.45;;;37.53;;
69799;SDS011;67217;51.008;4.644;2023-02-15T09:36:36;69.92;;;38.83;;
69799;SDS011;67217;51.008;4.644;2023-02-15T09:44:15;63.78;;;36.53;;
69799;SDS011;67217;51.008;4.644;2023-02-15T09:49:27;66.92;;;36.23;;
69799;SDS011;67217;51.008;4.644;2023-02-15T09:52:00;63.23;;;35.80;;
69799;SDS011;67217;51.008;4.644;2023-02-15T09:59:57;58.52;;;34.85;;
69799;SDS011;67217;51.008;4.644;2023-02-15T10:03:12;62.30;;;35.58;;
69799;SDS011;67217;51.008;4.644;2023-02-15T10:05:10;57.58;;;34.33;;
69799;SDS011;67217;51.008;4.644;2023-02-15T10:10:34;55.28;;;33.55;;
69799;SDS011;67217;51.008;4.644;2023-02-15T10:13:11;56.63;;;33.00;;
69799;SDS011;67217;51.008;4.644;2023-02-15T10:21:09;53.87;;;30.75;;
69799;SDS011;67217;51.008;4.644;2023-02-15T10:31:58;54.75;;;29.67;;
69799;SDS011;67217;51.008;4.644;2023-02-15T10:34:35;51.80;;;30.40;;
69799;SDS011;67217;51.008;4.644;2023-02-15T10:37:18;54.88;;;29.10;;
69799;SDS011;67217;51.008;4.644;2023-02-15T10:39:48;52.67;;;28.17;;
69799;SDS011;67217;51.008;4.644;2023-02-15T10:45:23;53.17;;;28.62;;
69799;SDS011;67217;51.008;4.644;2023-02-15T10:51:10;53.98;;;29.95;;
69799;SDS011;67217;51.008;4.644;2023-02-15T10:53:38;49.83;;;28.40;;
69799;SDS011;67217;51.008;4.644;2023-02-15T10:58:58;51.37;;;29.50;;
69799;SDS011;67217;51.008;4.644;2023-02-15T11:01:41;50.15;;;29.02;;
69799;SDS011;67217;51.008;4.644;2023-02-15T11:07:22;47.10;;;28.23;;
69799;SDS011;67217;51.008;4.644;2023-02-15T11:09:48;50.80;;;28.67;;
69799;SDS011;67217;51.008;4.644;2023-02-15T11:12:20;49.63;;;27.60;;
69799;SDS011;67217;51.008;4.644;2023-02-15T11:14:51;53.48;;;28.80;;
69799;SDS011;67217;51.008;4.644;2023-02-15T11:17:36;55.00;;;29.50;;
69799;SDS011;67217;51.008;4.644;2023-02-15T11:21:07;50.43;;;28.47;;
69799;SDS011;67217;51.008;4.644;2023-02-15T11:22:52;45.88;;;27.55;;
69799;SDS011;67217;51.008;4.644;2023-02-15T11:25:28;51.30;;;28.02;;
69799;SDS011;67217;51.008;4.644;2023-02-15T11:27:52;47.15;;;27.42;;
69799;SDS011;67217;51.008;4.644;2023-02-15T11:32:51;45.88;;;26.35;;
69799;SDS011;67217;51.008;4.644;2023-02-15T11:35:27;46.90;;;26.45;;
69799;SDS011;67217;51.008;4.644;2023-02-15T11:38:22;43.02;;;26.02;;
69799;SDS011;67217;51.008;4.644;2023-02-15T11:41:05;42.40;;;25.43;;
69799;SDS011;67217;51.008;4.644;2023-02-15T11:43:43;42.83;;;25.57;;
69799;SDS011;67217;51.008;4.644;2023-02-15T11:46:08;39.65;;;26.02;;
69799;SDS011;67217;51.008;4.644;2023-02-15T11:48:40;37.63;;;24.77;;
69799;SDS011;67217;51.008;4.644;2023-02-15T11:51:14;41.65;;;26.23;;
69799;SDS011;67217;51.008;4.644;2023-02-15T11:53:41;39.60;;;24.92;;
69799;SDS011;67217;51.008;4.644;2023-02-15T11:56:13;39.67;;;24.85;;
69799;SDS011;67217;51.008;4.644;2023-02-15T11:58:45;43.50;;;25.32;;
69799;SDS011;67217;51.008;4.644;2023-02-15T12:01:20;41.30;;;25.08;;
69799;SDS011;67217;51.008;4.644;2023-02-15T12:11:31;43.85;;;26.50;;
69799;SDS011;67217;51.008;4.644;2023-02-15T12:14:00;47.17;;;26.45;;
69799;SDS011;67217;51.008;4.644;2023-02-15T12:19:33;43.87;;;26.17;;
69799;SDS011;67217;51.008;4.644;2023-02-15T12:22:24;44.00;;;25.32;;
69799;SDS011;67217;51.008;4.644;2023-02-15T12:24:55;44.00;;;24.80;;
69799;SDS011;67217;51.008;4.644;2023-02-15T12:27:30;43.00;;;24.87;;
69799;SDS011;67217;51.008;4.644;2023-02-15T12:30:15;44.00;;;24.72;;
69799;SDS011;67217;51.008;4.644;2023-02-15T12:32:46;44.85;;;25.23;;
69799;SDS011;67217;51.008;4.644;2023-02-15T12:38:21;41.73;;;25.15;;
69799;SDS011;67217;51.008;4.644;2023-02-15T12:40:32;40.83;;;24.30;;
69799;SDS011;67217;51.008;4.644;2023-02-15T12:43:01;44.03;;;25.27;;
69799;SDS011;67217;51.008;4.644;2023-02-15T12:45:35;46.37;;;26.05;;
69799;SDS011;67217;51.008;4.644;2023-02-15T12:53:19;48.63;;;24.95;;
69799;SDS011;67217;51.008;4.644;2023-02-15T12:55:53;45.98;;;24.80;;
69799;SDS011;67217;51.008;4.644;2023-02-15T12:58:28;52.03;;;25.90;;
69799;SDS011;67217;51.008;4.644;2023-02-15T13:06:21;41.63;;;24.37;;
69799;SDS011;67217;51.008;4.644;2023-02-15T13:08:50;41.65;;;22.85;;
69799;SDS011;67217;51.008;4.644;2023-02-15T13:11:21;40.08;;;24.32;;
69799;SDS011;67217;51.008;4.644;2023-02-15T13:14:02;42.40;;;25.17;;
69799;SDS011;67217;51.008;4.644;2023-02-15T13:16:36;42.48;;;24.75;;
69799;SDS011;67217;51.008;4.644;2023-02-15T13:21:49;48.02;;;26.40;;
69799;SDS011;67217;51.008;4.644;2023-02-15T13:24:23;44.33;;;27.02;;
69799;SDS011;67217;51.008;4.644;2023-02-15T13:26:54;42.78;;;26.15;;
69799;SDS011;67217;51.008;4.644;2023-02-15T13:29:25;44.48;;;27.13;;
69799;SDS011;67217;51.008;4.644;2023-02-15T13:31:55;48.40;;;27.67;;
69799;SDS011;67217;51.008;4.644;2023-02-15T13:34:25;46.45;;;27.82;;
69799;SDS011;67217;51.008;4.644;2023-02-15T13:37:05;48.58;;;27.98;;
69799;SDS011;67217;51.008;4.644;2023-02-15T13:39:38;43.80;;;27.25;;
69799;SDS011;67217;51.008;4.644;2023-02-15T13:42:17;48.15;;;27.52;;
69799;SDS011;67217;51.008;4.644;2023-02-15T13:44:54;45.35;;;26.73;;
69799;SDS011;67217;51.008;4.644;2023-02-15T13:53:00;46.53;;;26.68;;
69799;SDS011;67217;51.008;4.644;2023-02-15T13:55:44;44.42;;;26.68;;
69799;SDS011;67217;51.008;4.644;2023-02-15T14:01:39;46.33;;;27.13;;
69799;SDS011;67217;51.008;4.644;2023-02-15T14:04:16;44.08;;;26.33;;
69799;SDS011;67217;51.008;4.644;2023-02-15T14:09:21;42.55;;;27.17;;
69799;SDS011;67217;51.008;4.644;2023-02-15T14:11:55;47.30;;;27.67;;
69799;SDS011;67217;51.008;4.644;2023-02-15T14:14:34;48.45;;;28.47;;
69799;SDS011;67217;51.008;4.644;2023-02-15T14:17:05;49.88;;;27.50;;
69799;SDS011;67217;51.008;4.644;2023-02-15T14:24:59;42.93;;;27.15;;
69799;SDS011;67217;51.008;4.644;2023-02-15T14:27:40;47.45;;;27.07;;
69799;SDS011;67217;51.008;4.644;2023-02-15T14:30:16;46.68;;;27.80;;
69799;SDS011;67217;51.008;4.644;2023-02-15T14:32:49;45.20;;;26.73;;
69799;SDS011;67217;51.008;4.644;2023-02-15T14:35:25;44.35;;;27.42;;
69799;SDS011;67217;51.008;4.644;2023-02-15T14:37:56;46.40;;;27.58;;
69799;SDS011;67217;51.008;4.644;2023-02-15T14:40:33;45.28;;;27.67;;
69799;SDS011;67217;51.008;4.644;2023-02-15T14:48:56;58.42;;;30.52;;
69799;SDS011;67217;51.008;4.644;2023-02-15T14:54:09;50.63;;;29.65;;
69799;SDS011;67217;51.008;4.644;2023-02-15T14:56:45;52.93;;;31.17;;
69799;SDS011;67217;51.008;4.644;2023-02-15T14:59:19;54.25;;;29.92;;
69799;SDS011;67217;51.008;4.644;2023-02-15T15:02:39;50.58;;;29.45;;
69799;SDS011;67217;51.008;4.644;2023-02-15T15:04:31;49.20;;;29.92;;
69799;SDS011;67217;51.008;4.644;2023-02-15T15:07:07;47.67;;;29.45;;
69799;SDS011;67217;51.008;4.644;2023-02-15T15:09:46;55.28;;;29.67;;
69799;SDS011;67217;51.008;4.644;2023-02-15T15:14:54;52.67;;;31.70;;
69799;SDS011;67217;51.008;4.644;2023-02-15T15:22:58;53.17;;;31.20;;
69799;SDS011;67217;51.008;4.644;2023-02-15T15:25:46;53.25;;;30.88;;
69799;SDS011;67217;51.008;4.644;2023-02-15T15:42:49;52.80;;;31.40;;
69799;SDS011;67217;51.008;4.644;2023-02-15T15:46:01;55.80;;;32.98;;
69799;SDS011;67217;51.008;4.644;2023-02-15T15:50:26;54.10;;;34.13;;
69799;SDS011;67217;51.008;4.644;2023-02-15T15:52:55;53.25;;;33.05;;
69799;SDS011;67217;51.008;4.644;2023-02-15T15:55:25;57.23;;;34.10;;
69799;SDS011;67217;51.008;4.644;2023-02-15T15:57:56;56.95;;;34.78;;
69799;SDS011;67217;51.008;4.644;2023-02-15T16:00:31;63.70;;;34.23;;
69799;SDS011;67217;51.008;4.644;2023-02-15T16:03:03;55.60;;;34.95;;
69799;SDS011;67217;51.008;4.644;2023-02-15T16:05:40;64.50;;;35.60;;
69799;SDS011;67217;51.008;4.644;2023-02-15T16:08:05;67.82;;;36.38;;
69799;SDS011;67217;51.008;4.644;2023-02-15T16:10:33;64.03;;;36.20;;
69799;SDS011;67217;51.008;4.644;2023-02-15T16:13:04;56.40;;;35.65;;
69799;SDS011;67217;51.008;4.644;2023-02-15T16:18:10;62.40;;;36.98;;
69799;SDS011;67217;51.008;4.644;2023-02-15T16:20:37;62.03;;;36.25;;
69799;SDS011;67217;51.008;4.644;2023-02-15T16:23:10;61.00;;;36.08;;
69799;SDS011;67217;51.008;4.644;2023-02-15T16:28:52;60.40;;;36.15;;
69799;SDS011;67217;51.008;4.644;2023-02-15T16:31:21;58.40;;;36.90;;
69799;SDS011;67217;51.008;4.644;2023-02-15T16:33:52;65.30;;;36.48;;
69799;SDS011;67217;51.008;4.644;2023-02-15T16:36:26;64.20;;;37.33;;
69799;SDS011;67217;51.008;4.644;2023-02-15T16:41:28;69.77;;;37.85;;
69799;SDS011;67217;51.008;4.644;2023-02-15T16:43:57;60.38;;;37.10;;
69799;SDS011;67217;51.008;4.644;2023-02-15T16:46:36;61.58;;;35.85;;
69799;SDS011;67217;51.008;4.644;2023-02-15T16:49:11;62.75;;;37.70;;
69799;SDS011;67217;51.008;4.644;2023-02-15T16:51:40;64.03;;;37.73;;
69799;SDS011;67217;51.008;4.644;2023-02-15T16:54:15;70.05;;;39.13;;
69799;SDS011;67217;51.008;4.644;2023-02-15T16:56:44;74.77;;;43.17;;
69799;SDS011;67217;51.008;4.644;2023-02-15T16:59:18;84.32;;;50.25;;
69799;SDS011;67217;51.008;4.644;2023-02-15T17:02:05;85.00;;;48.80;;
69799;SDS011;67217;51.008;4.644;2023-02-15T17:04:35;70.52;;;42.10;;
69799;SDS011;67217;51.008;4.644;2023-02-15T17:07:05;73.87;;;40.58;;
69799;SDS011;67217;51.008;4.644;2023-02-15T17:09:50;71.37;;;40.78;;
69799;SDS011;67217;51.008;4.644;2023-02-15T17:15:23;71.40;;;39.38;;
69799;SDS011;67217;51.008;4.644;2023-02-15T17:17:54;71.75;;;39.92;;
69799;SDS011;67217;51.008;4.644;2023-02-15T17:20:27;70.97;;;39.95;;
69799;SDS011;67217;51.008;4.644;2023-02-15T17:22:56;74.25;;;39.73;;
69799;SDS011;67217;51.008;4.644;2023-02-15T17:25:35;65.05;;;38.90;;
69799;SDS011;67217;51.008;4.644;2023-02-15T17:27:55;64.72;;;38.67;;